Time;durP1;ratioP1;P1;durP2;ratioP2;P2;SDS_P1;SDS_P2;PMS_P1;PMS_P2;Temp;Humidity;BMP_temperature;BMP_pressure;BME280_temperature;BME280_humidity;BME280_pressure;Samples;Min_cycle;Max_cycle;Signal;HPM_P1;HPM_P2
2020/12/06 00:01:44;;;;;;;45.17;26.62;;;;;;;5.79;83.89;100227.41;1678714;85;25738;-53
2020/12/06 00:04:18;;;;;;;46.77;26.00;;;;;;;5.78;83.60;100227.13;1678787;85;25675;-55
2020/12/06 00:06:41;;;;;;;46.23;27.65;;;;;;;5.78;83.67;100221.76;1677930;85;26196;-53
2020/12/06 00:09:08;;;;;;;45.03;26.45;;;;;;;5.77;83.87;100211.30;1678699;85;25752;-54
2020/12/06 00:11:35;;;;;;;43.95;26.87;;;;;;;5.76;83.87;100225.81;1678784;85;26028;-54
2020/12/06 00:14:02;;;;;;;43.38;25.48;;;;;;;5.77;83.83;100220.70;1678660;85;25690;-53
2020/12/06 00:16:29;;;;;;;43.28;25.45;;;;;;;5.76;83.80;100221.24;1678722;85;25769;-54
2020/12/06 00:18:56;;;;;;;41.75;25.20;;;;;;;5.76;84.26;100220.45;1678750;85;25829;-52
2020/12/06 00:21:23;;;;;;;42.03;24.98;;;;;;;5.76;83.95;100225.81;1678648;85;26358;-54
2020/12/06 00:23:51;;;;;;;40.25;24.30;;;;;;;5.76;83.69;100224.48;1678737;85;25796;-52
2020/12/06 00:26:22;;;;;;;43.85;25.35;;;;;;;5.74;83.92;100236.83;1678748;85;25680;-53
2020/12/06 00:28:52;;;;;;;42.53;25.60;;;;;;;5.75;83.81;100221.52;1678774;85;25668;-55
2020/12/06 00:31:19;;;;;;;41.77;24.45;;;;;;;5.74;84.00;100223.41;1678347;85;27063;-52
2020/12/06 00:33:49;;;;;;;42.15;25.20;;;;;;;5.73;83.83;100230.39;1680986;84;25640;-56
2020/12/06 00:36:16;;;;;;;45.20;25.48;;;;;;;5.74;83.85;100232.80;1682300;85;25660;-56
2020/12/06 00:38:44;;;;;;;48.42;26.82;;;;;;;5.73;83.86;100237.90;1682156;85;26336;-56
2020/12/06 00:41:16;;;;;;;40.12;24.50;;;;;;;5.72;83.79;100230.94;1682182;85;25733;-57
2020/12/06 00:43:43;;;;;;;42.40;26.05;;;;;;;5.72;83.69;100239.52;1681940;85;26773;-57
2020/12/06 00:46:11;;;;;;;47.73;26.35;;;;;;;5.70;83.74;100239.79;1682184;85;25706;-56
2020/12/06 00:48:38;;;;;;;44.93;25.82;;;;;;;5.69;83.52;100235.52;1682319;85;26347;-56
2020/12/06 00:51:05;;;;;;;45.35;25.95;;;;;;;5.67;83.58;100243.05;1682172;85;25800;-55
2020/12/06 00:53:32;;;;;;;47.90;26.97;;;;;;;5.66;83.90;100248.14;1682328;85;25657;-54
2020/12/06 00:55:59;;;;;;;48.73;26.93;;;;;;;5.66;84.20;100247.34;1682178;85;25821;-55
2020/12/06 00:58:26;;;;;;;43.98;26.45;;;;;;;5.66;83.88;100252.17;1682236;85;25859;-57
2020/12/06 01:00:53;;;;;;;45.52;25.92;;;;;;;5.67;84.02;100252.96;1682254;85;25672;-55
2020/12/06 01:03:20;;;;;;;46.33;26.82;;;;;;;5.68;83.83;100251.89;1681996;85;25701;-56
2020/12/06 01:05:46;;;;;;;44.08;27.02;;;;;;;5.68;83.98;100250.55;1682185;85;25744;-56
2020/12/06 01:08:13;;;;;;;44.55;25.92;;;;;;;5.70;84.30;100262.59;1682185;85;26203;-52
2020/12/06 01:10:40;;;;;;;40.80;23.77;;;;;;;5.70;84.06;100258.58;1682012;85;25697;-56
2020/12/06 01:13:07;;;;;;;44.08;26.25;;;;;;;5.72;84.20;100259.12;1682206;85;25530;-52
2020/12/06 01:15:34;;;;;;;48.60;26.80;;;;;;;5.74;84.01;100252.93;1656734;85;25980;-54
2020/12/06 01:18:01;;;;;;;42.55;25.82;;;;;;;5.74;83.96;100250.25;1682130;85;25657;-53
2020/12/06 01:20:28;;;;;;;42.45;25.97;;;;;;;5.75;83.92;100250.49;1682166;85;25949;-53
2020/12/06 01:22:55;;;;;;;47.27;26.05;;;;;;;5.74;84.08;100244.88;1682079;85;26440;-51
2020/12/06 01:25:22;;;;;;;43.20;25.82;;;;;;;5.74;83.92;100251.59;1682097;85;25676;-51
2020/12/06 01:27:49;;;;;;;44.23;25.85;;;;;;;5.75;83.74;100246.47;1682097;85;25734;-51
2020/12/06 01:30:16;;;;;;;44.88;25.00;;;;;;;5.73;83.98;100249.98;1682208;85;25709;-51
2020/12/06 01:32:42;;;;;;;47.55;27.45;;;;;;;5.74;84.26;100246.22;1681995;85;26221;-52
2020/12/06 01:35:09;;;;;;;42.10;25.48;;;;;;;5.74;84.22;100242.75;1682219;85;25882;-49
2020/12/06 01:37:36;;;;;;;47.95;27.45;;;;;;;5.75;84.04;100239.75;1682212;85;25717;-51
2020/12/06 01:40:03;;;;;;;42.23;25.85;;;;;;;5.76;83.94;100236.55;1682078;85;25674;-50
2020/12/06 01:42:30;;;;;;;41.63;25.12;;;;;;;5.76;83.74;100237.90;1682164;85;25678;-49
2020/12/06 01:45:03;;;;;;;41.20;23.95;;;;;;;5.75;83.62;100237.63;1682053;85;26186;-49
2020/12/06 01:47:31;;;;;;;41.08;24.60;;;;;;;5.74;83.80;100237.37;1682025;85;25733;-50
2020/12/06 01:49:58;;;;;;;40.98;24.00;;;;;;;5.74;83.80;100238.17;1682232;85;25668;-52
2020/12/06 01:52:29;;;;;;;41.55;24.43;;;;;;;5.74;84.01;100243.53;1682131;85;25649;-53
2020/12/06 01:54:54;;;;;;;43.13;25.00;;;;;;;5.75;83.71;100246.47;1682146;85;25940;-51
2020/12/06 01:57:20;;;;;;;40.30;24.15;;;;;;;5.75;83.74;100238.41;1682082;85;27109;-53
2020/12/06 01:59:47;;;;;;;39.65;23.07;;;;;;;5.75;83.57;100242.98;1682020;85;25716;-48
2020/12/06 02:02:15;;;;;;;42.53;24.80;;;;;;;5.75;83.72;100236.28;1682095;85;25623;-51
2020/12/06 02:04:44;;;;;;;42.38;24.18;;;;;;;5.74;83.56;100242.75;1682094;85;25829;-49
2020/12/06 02:07:11;;;;;;;42.48;25.00;;;;;;;5.73;83.51;100241.92;1682260;85;25738;-49
2020/12/06 02:09:38;;;;;;;46.13;25.10;;;;;;;5.73;83.58;100230.39;1682163;85;25796;-47
2020/12/06 02:12:08;;;;;;;42.48;24.72;;;;;;;5.73;83.61;100243.81;1681957;85;26450;-47
2020/12/06 02:14:35;;;;;;;;;;;;;;;5.74;83.67;100240.06;1684528;85;25714;-48
2020/12/06 02:17:03;;;;;;;42.73;24.50;;;;;;;5.75;83.57;100238.97;1682076;85;25715;-49
2020/12/06 02:19:29;;;;;;;39.85;23.65;;;;;;;5.75;83.65;100244.33;1682121;85;25725;-49
2020/12/06 02:21:56;;;;;;;43.05;24.90;;;;;;;5.76;83.59;100248.08;1682047;85;27115;-48
2020/12/06 02:24:23;;;;;;;44.03;24.82;;;;;;;5.77;83.57;100248.36;1681989;85;25673;-49
2020/12/06 02:26:51;;;;;;;41.88;24.70;;;;;;;5.77;83.46;100247.53;1682232;85;25602;-50
2020/12/06 02:29:20;;;;;;;44.40;24.75;;;;;;;5.78;83.35;100255.31;1681991;85;25623;-50
2020/12/06 02:31:47;;;;;;;43.05;25.05;;;;;;;5.79;83.38;100252.11;1682138;85;25892;-51
2020/12/06 02:34:14;;;;;;;39.70;24.10;;;;;;;5.79;83.31;100256.14;1680031;85;25821;-49
2020/12/06 02:36:41;;;;;;;36.53;22.90;;;;;;;5.81;83.38;100257.99;1678524;85;25745;-49
2020/12/06 02:39:11;;;;;;;37.42;22.52;;;;;;;5.82;83.23;100261.47;1678584;85;25676;-47
2020/12/06 02:41:41;;;;;;;38.80;23.65;;;;;;;5.82;83.19;100264.16;1678695;85;26273;-51
2020/12/06 02:44:09;;;;;;;37.65;22.50;;;;;;;5.82;83.23;100266.30;1678534;85;25938;-49
2020/12/06 02:46:37;;;;;;;40.23;23.02;;;;;;;5.84;83.22;100257.97;1678629;85;26449;-51
2020/12/06 02:49:05;;;;;;;40.63;20.85;;;;;;;5.85;83.05;100266.29;1678678;85;25761;-53
2020/12/06 02:51:34;;;;;;;38.10;22.17;;;;;;;5.84;83.06;100263.33;1678552;85;25749;-49
2020/12/06 02:54:00;;;;;;;34.27;21.75;;;;;;;5.78;82.98;100258.55;1678755;85;25681;-49
2020/12/06 02:56:27;;;;;;;35.83;21.68;;;;;;;5.83;82.92;100273.28;1678783;85;25718;-52
2020/12/06 02:58:54;;;;;;;38.40;22.73;;;;;;;5.82;82.91;100267.63;1678585;85;26193;-52
2020/12/06 03:01:21;;;;;;;38.00;22.67;;;;;;;5.81;82.98;100255.31;1678580;85;26447;-50
2020/12/06 03:03:48;;;;;;;33.08;20.77;;;;;;;5.79;82.82;100260.16;1678644;85;26275;-49
2020/12/06 03:06:14;;;;;;;34.98;22.02;;;;;;;5.79;82.90;100280.30;1678678;85;25655;-51
2020/12/06 03:08:41;;;;;;;37.10;21.55;;;;;;;5.78;82.77;100258.55;1678608;85;25700;-52
2020/12/06 03:11:08;;;;;;;31.33;20.50;;;;;;;5.80;82.79;100267.12;1678656;85;26810;-49
2020/12/06 03:13:35;;;;;;;34.30;20.90;;;;;;;5.77;82.72;100265.80;1678688;85;25713;-49
2020/12/06 03:16:04;;;;;;;31.75;19.65;;;;;;;5.79;82.72;100280.30;1678866;85;25727;-50
2020/12/06 03:18:31;;;;;;;35.17;21.80;;;;;;;5.77;82.89;100263.64;1678369;84;25759;-47
2020/12/06 03:20:59;;;;;;;34.23;22.25;;;;;;;5.74;82.83;100262.33;1678811;85;25949;-47
2020/12/06 03:23:26;;;;;;;32.53;21.27;;;;;;;5.74;82.94;100256.16;1678726;85;25812;-48
2020/12/06 03:25:52;;;;;;;35.43;21.25;;;;;;;5.75;82.74;100269.28;1678606;85;25630;-48
2020/12/06 03:28:19;;;;;;;31.87;20.62;;;;;;;5.74;82.77;100265.01;1678750;85;26374;-52
2020/12/06 03:30:46;;;;;;;32.55;21.20;;;;;;;5.74;82.75;100268.24;1678701;85;25660;-48
2020/12/06 03:33:13;;;;;;;33.95;21.00;;;;;;;5.73;82.74;100274.13;1678699;85;25768;-50
2020/12/06 03:35:39;;;;;;;34.25;21.12;;;;;;;5.73;82.71;100289.44;1682227;85;26324;-51
2020/12/06 03:38:06;;;;;;;34.43;21.50;;;;;;;5.72;82.74;100276.56;1682181;85;25682;-51
2020/12/06 03:40:33;;;;;;;33.00;20.08;;;;;;;5.72;82.74;100283.80;1682182;85;25719;-50
2020/12/06 03:43:00;;;;;;;31.15;20.65;;;;;;;5.71;82.54;100286.23;1682121;85;25600;-51
2020/12/06 03:45:26;;;;;;;33.98;21.68;;;;;;;5.70;82.56;100285.41;1682207;85;25740;-48
2020/12/06 03:47:56;;;;;;;32.17;19.95;;;;;;;5.70;82.58;100291.33;1682147;85;26429;-50
2020/12/06 03:50:23;;;;;;;30.95;19.67;;;;;;;5.67;82.51;100279.80;1682204;85;25658;-48
2020/12/06 03:52:50;;;;;;;32.05;20.68;;;;;;;5.67;82.53;100291.87;1682125;85;25793;-48
2020/12/06 03:55:17;;;;;;;30.15;19.40;;;;;;;5.65;82.43;100291.35;1682251;85;25721;-50
2020/12/06 03:57:44;;;;;;;30.32;19.45;;;;;;;5.65;82.38;100291.35;1682260;85;25701;-49
2020/12/06 04:00:12;;;;;;;29.77;19.25;;;;;;;5.62;82.43;100294.06;1682263;85;25726;-49
2020/12/06 04:02:39;;;;;;;27.37;18.32;;;;;;;5.59;82.31;100286.01;1681954;85;25740;-48
2020/12/06 04:05:05;;;;;;;30.20;19.50;;;;;;;5.57;82.31;100285.48;1682197;85;25654;-49
2020/12/06 04:07:32;;;;;;;28.98;19.25;;;;;;;5.54;82.31;100286.58;1682121;85;25698;-48
2020/12/06 04:09:59;;;;;;;30.65;18.25;;;;;;;5.53;82.29;100289.78;1682083;85;25731;-48
2020/12/06 04:12:25;;;;;;;30.72;19.50;;;;;;;5.52;82.27;100291.42;1682230;85;27134;-47
2020/12/06 04:14:52;;;;;;;27.27;19.12;;;;;;;5.52;82.29;100296.25;1682113;85;25597;-48
2020/12/06 04:17:19;;;;;;;29.82;18.55;;;;;;;5.52;82.36;100294.91;1682100;85;25697;-46
2020/12/06 04:19:45;;;;;;;28.50;18.65;;;;;;;5.51;82.30;100295.97;1682169;85;26406;-48
2020/12/06 04:22:12;;;;;;;27.50;18.55;;;;;;;5.50;82.27;100299.75;1682141;85;25705;-49
2020/12/06 04:24:39;;;;;;;26.37;17.82;;;;;;;5.48;82.19;100298.41;1682181;85;26203;-49
2020/12/06 04:27:06;;;;;;;27.07;17.42;;;;;;;5.47;82.19;100295.47;1682105;85;25310;-49
2020/12/06 04:29:32;;;;;;;27.77;17.62;;;;;;;5.43;82.22;100312.11;1682072;85;25695;-47
2020/12/06 04:31:59;;;;;;;28.45;19.05;;;;;;;5.41;82.09;100307.56;1682054;85;26550;-49
2020/12/06 04:34:26;;;;;;;27.05;17.67;;;;;;;5.38;82.09;100309.45;1682174;85;26076;-49
2020/12/06 04:36:52;;;;;;;26.48;17.77;;;;;;;5.37;82.11;100293.63;1682174;85;26141;-48
2020/12/06 04:39:22;;;;;;;23.80;17.73;;;;;;;5.35;82.06;100305.17;1682246;85;25894;-48
2020/12/06 04:41:49;;;;;;;24.75;16.45;;;;;;;5.32;82.05;100294.44;1682281;85;26388;-48
2020/12/06 04:44:15;;;;;;;22.37;15.70;;;;;;;5.30;82.00;100318.05;1681984;85;25664;-51
2020/12/06 04:46:42;;;;;;;22.67;15.23;;;;;;;5.27;82.17;100302.50;1682182;85;25632;-51
2020/12/06 04:49:42;;;;;;;25.00;17.07;;;;;;;5.24;82.00;100315.93;1682168;85;26729;-48
2020/12/06 04:52:03;;;;;;;23.40;16.30;;;;;;;5.22;82.04;100308.67;1680610;85;25762;-47
2020/12/06 04:54:35;;;;;;;28.52;17.95;;;;;;;5.20;82.13;100308.69;1682112;85;25764;-47
2020/12/06 04:57:04;;;;;;;26.90;17.32;;;;;;;5.19;82.08;100311.09;1681903;84;25720;-47
2020/12/06 04:59:34;;;;;;;24.37;17.40;;;;;;;5.18;82.13;100333.09;1682312;85;25757;-47
2020/12/06 05:02:06;;;;;;;26.40;16.95;;;;;;;5.18;82.35;100319.69;1682381;85;26042;-48
2020/12/06 05:04:34;;;;;;;23.10;16.05;;;;;;;5.18;82.35;100319.69;1681941;85;25679;-49
2020/12/06 05:07:02;;;;;;;25.02;17.23;;;;;;;5.18;82.18;100318.89;1682030;85;25780;-50
2020/12/06 05:09:34;;;;;;;23.32;15.70;;;;;;;5.18;82.08;100321.58;1682103;85;25682;-49
2020/12/06 05:12:02;;;;;;;24.87;15.80;;;;;;;5.16;82.01;100316.48;1682134;85;25699;-50
2020/12/06 05:14:29;;;;;;;23.30;16.12;;;;;;;5.14;81.94;100325.34;1682169;85;26268;-48
2020/12/06 05:16:57;;;;;;;22.20;14.98;;;;;;;5.12;81.82;100324.78;1682093;85;25776;-49
2020/12/06 05:19:26;;;;;;;23.92;15.18;;;;;;;5.09;81.86;100326.69;1682170;85;26350;-49
2020/12/06 05:21:54;;;;;;;22.85;14.53;;;;;;;5.08;81.84;100330.98;1682262;85;26364;-47
2020/12/06 05:24:21;;;;;;;19.52;13.65;;;;;;;5.06;81.86;100319.19;1682124;85;25662;-48
2020/12/06 05:26:50;;;;;;;21.50;14.90;;;;;;;5.04;81.73;100341.45;1682096;85;25967;-48
2020/12/06 05:29:17;;;;;;;21.23;14.98;;;;;;;5.00;81.72;100339.02;1682090;85;25838;-48
2020/12/06 05:31:44;;;;;;;20.80;15.23;;;;;;;4.98;81.67;100336.61;1682000;85;25983;-49
2020/12/06 05:34:11;;;;;;;20.72;14.65;;;;;;;4.95;81.71;100337.14;1681629;84;25700;-48
2020/12/06 05:36:44;;;;;;;20.10;13.28;;;;;;;4.92;81.66;100328.84;1678830;85;25652;-51
2020/12/06 05:39:11;;;;;;;22.07;14.87;;;;;;;4.90;81.79;100341.17;1678735;85;26002;-49
2020/12/06 05:41:38;;;;;;;21.20;14.53;;;;;;;4.88;81.73;100341.98;1678497;85;25748;-51
2020/12/06 05:44:08;;;;;;;18.12;13.60;;;;;;;4.84;81.83;100356.46;1678640;85;25771;-48
2020/12/06 05:46:35;;;;;;;;;;;;;;;4.81;81.92;100347.61;1681128;85;25253;-48
2020/12/06 05:49:05;;;;;;;19.15;13.18;;;;;;;4.80;81.78;100351.38;1678748;85;25996;-47
2020/12/06 05:51:32;;;;;;;20.35;14.05;;;;;;;4.78;81.81;100362.09;1678773;85;25742;-46
2020/12/06 05:53:59;;;;;;;19.15;13.25;;;;;;;4.75;81.87;100356.75;1650947;85;25848;-48
2020/12/06 05:56:26;;;;;;;22.82;14.90;;;;;;;4.73;81.98;100370.13;1678574;85;25796;-48
2020/12/06 05:58:53;;;;;;;18.75;13.55;;;;;;;4.72;81.85;100367.20;1678573;85;25991;-50
2020/12/06 06:01:22;;;;;;;20.95;13.80;;;;;;;4.71;81.84;100367.71;1678640;85;26487;-50
2020/12/06 06:03:59;;;;;;;19.30;13.98;;;;;;;4.72;81.85;100406.85;1678700;85;26335;-51
2020/12/06 06:06:41;;;;;;;22.02;14.13;;;;;;;4.71;81.81;100392.38;1678564;85;25751;-51
2020/12/06 06:09:11;;;;;;;17.95;12.82;;;;;;;4.70;81.74;100391.58;1678645;85;25758;-48
2020/12/06 06:11:46;;;;;;;19.85;13.58;;;;;;;4.67;81.87;100394.24;1651232;85;26092;-47
2020/12/06 06:14:14;;;;;;;22.85;16.25;;;;;;;4.65;81.86;100387.02;1678449;82;25822;-48
2020/12/06 06:16:41;;;;;;;20.10;14.30;;;;;;;4.65;81.91;100398.28;1678619;85;26394;-50
2020/12/06 06:19:08;;;;;;;22.70;15.03;;;;;;;4.64;81.89;100393.43;1678591;85;25771;-48
2020/12/06 06:21:42;;;;;;;24.47;15.43;;;;;;;4.64;81.88;100389.41;1678580;85;25769;-49
2020/12/06 06:24:15;;;;;;;22.65;14.00;;;;;;;4.64;82.10;100384.05;1678660;85;25712;-52
2020/12/06 06:26:45;;;;;;;19.98;14.13;;;;;;;4.65;81.98;100397.73;1678596;85;25700;-48
2020/12/06 06:29:14;;;;;;;18.67;13.83;;;;;;;4.65;81.99;100400.95;1678497;85;26017;-49
2020/12/06 06:31:45;;;;;;;18.67;14.45;;;;;;;4.64;81.96;100410.84;1678745;84;34810;-48
2020/12/06 06:34:12;;;;;;;19.60;13.60;;;;;;;4.65;81.92;100397.73;1678635;85;25801;-48
2020/12/06 06:36:39;;;;;;;17.92;12.73;;;;;;;4.64;81.81;100404.70;1681921;85;25700;-50
2020/12/06 06:39:06;;;;;;;18.60;13.48;;;;;;;4.65;81.83;100404.97;1682044;85;25722;-49
2020/12/06 06:41:35;;;;;;;19.70;13.88;;;;;;;4.65;81.75;100398.28;1682068;85;25911;-50
2020/12/06 06:44:04;;;;;;;17.30;13.17;;;;;;;4.64;81.78;100401.47;1682350;85;25756;-48
2020/12/06 06:46:33;;;;;;;18.90;12.93;;;;;;;4.63;81.75;100409.26;1682384;85;25707;-53
2020/12/06 06:49:11;;;;;;;18.27;13.53;;;;;;;4.64;81.68;100411.39;1682347;85;25707;-52
2020/12/06 06:51:38;;;;;;;19.55;13.30;;;;;;;4.63;81.67;100413.79;1682231;85;25708;-51
2020/12/06 06:54:08;;;;;;;20.57;15.18;;;;;;;4.63;81.73;100406.58;1682236;85;27143;-51
2020/12/06 06:56:50;;;;;;;;;;;;;;;4.61;81.92;100411.38;1684771;85;25822;-51
2020/12/06 06:59:35;;;;;;;20.92;15.03;;;;;;;4.62;81.81;100414.88;1682197;85;25782;-51
2020/12/06 07:02:33;;;;;;;21.60;14.23;;;;;;;4.66;81.81;100414.60;1886363;75;35439;-50
2020/12/06 07:05:04;;;;;;;18.65;14.00;;;;;;;4.58;81.84;100413.78;1857214;77;25745;-51
2020/12/06 07:07:49;;;;;;;19.98;14.58;;;;;;;4.56;81.96;100407.89;1857338;77;26273;-52
2020/12/06 07:10:23;;;;;;;18.82;13.05;;;;;;;4.55;81.90;100438.45;1857124;77;25769;-51
2020/12/06 07:12:54;;;;;;;20.90;13.75;;;;;;;4.54;81.78;100407.36;1857209;77;25686;-50
2020/12/06 07:15:26;;;;;;;19.60;12.95;;;;;;;4.53;81.79;100403.88;1857085;77;25658;-49
2020/12/06 07:17:55;;;;;;;20.17;13.98;;;;;;;4.53;81.75;100406.56;1857162;77;25723;-51
2020/12/06 07:20:23;;;;;;;19.40;14.38;;;;;;;4.53;81.88;100407.08;1857066;76;25726;-50
2020/12/06 07:22:52;;;;;;;21.68;14.65;;;;;;;4.53;81.72;100415.94;1857018;77;26056;-50
2020/12/06 07:25:20;;;;;;;20.48;14.80;;;;;;;4.53;81.74;100429.34;1857355;77;25632;-49
2020/12/06 07:27:47;;;;;;;20.97;14.25;;;;;;;4.51;81.79;100399.30;1857046;77;25674;-51
2020/12/06 07:30:17;;;;;;;19.32;13.72;;;;;;;4.50;81.70;100401.73;1857164;77;25608;-49
2020/12/06 07:32:45;;;;;;;20.75;14.03;;;;;;;4.48;81.73;100406.55;1864017;75;26418;-52
2020/12/06 07:35:15;;;;;;;22.70;15.20;;;;;;;4.45;81.75;100423.95;1860780;75;25646;-51
2020/12/06 07:37:41;;;;;;;22.87;15.18;;;;;;;4.45;81.76;100405.73;1865863;76;25654;-52
2020/12/06 07:40:11;;;;;;;20.52;14.10;;;;;;;4.43;81.61;100411.36;1856359;76;26318;-53
2020/12/06 07:42:41;;;;;;;19.03;14.23;;;;;;;4.42;81.59;100425.81;1858295;76;25738;-52
2020/12/06 07:45:08;;;;;;;;;;;;;;;4.40;81.61;100415.90;1864345;75;27336;-48
2020/12/06 07:47:35;;;;;;;20.52;14.10;;;;;;;4.40;81.60;100430.63;1866581;75;25780;-50
2020/12/06 07:50:05;;;;;;;22.27;14.50;;;;;;;4.40;81.58;100435.98;1859589;76;25587;-52
2020/12/06 07:52:35;;;;;;;18.67;13.90;;;;;;;4.41;81.58;100440.29;1862178;76;26227;-50
2020/12/06 07:55:08;;;;;;;19.05;12.78;;;;;;;4.40;81.58;100425.81;1864962;76;25812;-51
2020/12/06 07:57:48;;;;;;;19.37;12.98;;;;;;;4.41;81.48;100431.42;1861520;76;26381;-51
2020/12/06 08:00:20;;;;;;;18.60;12.95;;;;;;;4.43;81.54;100438.14;1859948;75;26427;-52
2020/12/06 08:02:57;;;;;;;17.80;12.20;;;;;;;4.43;81.36;100423.41;1856949;75;25838;-51
2020/12/06 08:05:32;;;;;;;18.32;12.47;;;;;;;4.43;81.27;100436.01;1782623;79;25913;-53
2020/12/06 08:08:09;;;;;;;19.35;13.78;;;;;;;4.44;81.16;100422.36;1769295;79;26048;-54
2020/12/06 08:10:37;;;;;;;17.87;12.53;;;;;;;4.42;81.13;100424.47;1788156;79;25709;-53
2020/12/06 08:13:10;;;;;;;17.20;12.78;;;;;;;4.42;81.11;100424.47;1791342;79;25654;-52
2020/12/06 08:15:38;;;;;;;19.25;13.53;;;;;;;4.44;81.07;100428.23;1766708;79;25674;-53
2020/12/06 08:18:19;;;;;;;19.30;12.93;;;;;;;4.46;81.00;100424.74;1807872;78;26325;-54
2020/12/06 08:20:56;;;;;;;16.00;12.15;;;;;;;4.46;80.58;100418.05;1781786;79;25790;-52
2020/12/06 08:23:33;;;;;;;17.52;12.53;;;;;;;4.48;80.76;100436.02;1770432;79;26142;-53
2020/12/06 08:26:00;;;;;;;18.40;12.15;;;;;;;4.47;80.56;100420.46;1784775;78;25721;-54
2020/12/06 08:28:27;;;;;;;17.07;12.43;;;;;;;4.47;80.48;100423.69;1768808;79;25919;-51
2020/12/06 08:30:54;;;;;;;19.32;13.13;;;;;;;4.48;80.56;100432.80;1801582;78;25687;-50
2020/12/06 08:33:25;;;;;;;17.12;12.28;;;;;;;4.52;80.67;100440.31;1808082;79;25669;-50
2020/12/06 08:35:56;;;;;;;19.17;13.15;;;;;;;4.53;80.45;100434.69;1812478;79;25898;-53
2020/12/06 08:38:29;;;;;;;16.67;12.47;;;;;;;4.52;80.25;100430.39;1812358;78;25594;-53
2020/12/06 08:41:11;;;;;;;15.63;12.13;;;;;;;4.52;80.25;100432.27;1795307;79;26401;-54
2020/12/06 08:43:50;;;;;;;17.15;12.55;;;;;;;4.54;80.24;100442.19;1786034;79;26095;-50
2020/12/06 08:46:25;;;;;;;16.62;11.97;;;;;;;4.54;80.11;100431.47;1780383;80;25611;-52
2020/12/06 08:48:56;;;;;;;18.20;12.70;;;;;;;4.52;80.01;100432.27;1780470;80;25797;-53
2020/12/06 08:51:29;;;;;;;22.15;12.75;;;;;;;4.49;80.09;100433.08;1779410;80;25741;-53
2020/12/06 08:53:58;;;;;;;15.45;11.93;;;;;;;4.51;80.16;100425.30;1780424;80;25784;-52
2020/12/06 08:56:28;;;;;;;18.75;12.53;;;;;;;4.49;79.97;100437.09;1780608;80;25664;-52
2020/12/06 08:58:57;;;;;;;19.15;11.45;;;;;;;4.48;79.83;100431.46;1777840;80;25642;-52
2020/12/06 09:01:24;;;;;;;18.75;11.80;;;;;;;4.48;79.92;100448.88;1779951;80;25777;-51
2020/12/06 09:03:51;;;;;;;16.70;11.90;;;;;;;4.50;79.95;100423.16;1780257;80;25655;-54
2020/12/06 09:06:18;;;;;;;18.48;11.93;;;;;;;4.49;79.82;100427.72;1780278;80;25712;-55
2020/12/06 09:08:45;;;;;;;16.65;11.95;;;;;;;4.51;79.95;100430.66;1779386;80;25669;-51
2020/12/06 09:11:20;;;;;;;15.78;11.90;;;;;;;4.51;79.55;100426.09;1788884;79;26453;-50
2020/12/06 09:13:48;;;;;;;16.67;11.83;;;;;;;4.49;79.42;100429.58;1784600;80;25959;-51
2020/12/06 09:16:15;;;;;;;17.23;12.65;;;;;;;4.46;79.48;100404.66;1780801;80;25649;-48
2020/12/06 09:18:42;;;;;;;17.65;12.50;;;;;;;4.47;79.54;100412.97;1764571;80;25974;-49
2020/12/06 09:21:09;;;;;;;15.23;11.22;;;;;;;4.47;79.62;100404.94;1776781;80;26022;-47
2020/12/06 09:23:36;;;;;;;16.27;11.85;;;;;;;4.48;79.48;100418.06;1758540;81;25674;-50
2020/12/06 09:26:04;;;;;;;15.25;10.65;;;;;;;4.47;79.46;100418.33;1770967;79;26219;-49
2020/12/06 09:28:33;;;;;;;16.05;11.20;;;;;;;4.47;79.43;100414.31;1789870;80;25618;-53
2020/12/06 09:31:01;;;;;;;16.10;11.03;;;;;;;4.47;79.49;100404.39;1789928;80;26134;-48
2020/12/06 09:33:28;;;;;;;16.37;10.70;;;;;;;4.51;79.45;100410.02;1789967;80;25691;-49
2020/12/06 09:35:55;;;;;;;16.07;11.55;;;;;;;4.49;79.32;100408.97;1758376;80;25792;-51
2020/12/06 09:38:22;;;;;;;16.32;11.15;;;;;;;4.47;79.22;100427.16;1790041;80;25985;-49
2020/12/06 09:40:49;;;;;;;18.32;11.68;;;;;;;4.47;79.30;100396.90;1781309;79;25840;-51
2020/12/06 09:43:17;;;;;;;16.90;10.78;;;;;;;4.47;79.25;100392.87;1779361;80;26064;-57
2020/12/06 09:45:46;;;;;;;16.65;11.48;;;;;;;4.46;79.25;100397.44;1779435;80;25853;-55
2020/12/06 09:48:13;;;;;;;16.32;12.18;;;;;;;4.47;79.32;100403.59;1779629;80;25719;-58
2020/12/06 09:50:42;;;;;;;15.70;9.85;;;;;;;4.47;79.24;100405.73;1766209;79;155550;-57
2020/12/06 09:53:08;;;;;;;16.45;10.98;;;;;;;4.48;79.27;100393.95;1760788;81;25650;-55
2020/12/06 09:55:35;;;;;;;19.32;12.68;;;;;;;4.52;79.31;100397.45;1761270;81;26259;-55
2020/12/06 09:58:02;;;;;;;17.25;11.28;;;;;;;4.53;79.02;100400.38;1760988;81;25838;-55
2020/12/06 10:00:29;;;;;;;18.20;11.68;;;;;;;4.53;79.10;100400.38;1761236;81;25544;-56
2020/12/06 10:02:55;;;;;;;19.65;11.40;;;;;;;4.53;79.12;100397.70;1761141;81;25923;-56
2020/12/06 10:05:22;;;;;;;16.80;11.70;;;;;;;4.54;79.12;100396.64;1761522;81;25771;-54
2020/12/06 10:07:49;;;;;;;16.45;11.03;;;;;;;4.52;78.95;100394.77;1761502;81;25956;-57
2020/12/06 10:10:17;;;;;;;16.95;12.05;;;;;;;4.49;78.76;100390.22;1761185;81;25694;-52
2020/12/06 10:12:44;;;;;;;15.60;10.95;;;;;;;4.46;78.68;100394.77;1761354;81;26233;-56
2020/12/06 10:15:11;;;;;;;16.50;11.35;;;;;;;4.45;78.69;100393.14;1761335;81;25785;-56
2020/12/06 10:17:38;;;;;;;16.00;10.70;;;;;;;4.43;78.54;100377.08;1761542;81;25566;-56
2020/12/06 10:20:08;;;;;;;20.88;11.57;;;;;;;4.42;78.78;100390.98;1761458;81;26081;-58
2020/12/06 10:22:35;;;;;;;17.02;10.95;;;;;;;4.44;78.93;100383.52;1732735;81;25754;-54
2020/12/06 10:25:03;;;;;;;16.37;10.88;;;;;;;4.44;78.77;100380.84;1761440;81;25750;-54
2020/12/06 10:27:30;;;;;;;16.42;10.15;;;;;;;4.44;78.49;100375.48;1745640;81;25879;-51
2020/12/06 10:29:56;;;;;;;18.87;10.70;;;;;;;4.43;78.51;100377.08;1745599;82;26458;-56
2020/12/06 10:32:23;;;;;;;17.62;10.93;;;;;;;4.41;78.34;100369.83;1745534;82;25814;-56
2020/12/06 10:34:50;;;;;;;16.55;11.33;;;;;;;4.37;78.27;100373.57;1745590;81;25707;-56
2020/12/06 10:37:16;;;;;;;14.83;10.25;;;;;;;4.33;78.14;100362.34;1745440;82;25771;-56
2020/12/06 10:39:43;;;;;;;19.12;11.63;;;;;;;4.30;78.21;100368.47;1750849;81;26463;-56
2020/12/06 10:42:10;;;;;;;17.82;12.40;;;;;;;4.30;78.25;100365.00;1759241;81;25682;-54
2020/12/06 10:44:36;;;;;;;18.80;12.23;;;;;;;4.29;78.54;100362.03;1759639;81;25904;-54
2020/12/06 10:47:03;;;;;;;19.85;13.60;;;;;;;4.31;78.63;100361.26;1759434;81;25901;-56
2020/12/06 10:49:30;;;;;;;22.87;13.15;;;;;;;4.30;78.68;100364.45;1759540;81;25846;-58
2020/12/06 10:51:57;;;;;;;20.55;12.95;;;;;;;4.30;78.66;100355.08;1754964;80;26176;-57
2020/12/06 10:54:24;;;;;;;17.45;12.30;;;;;;;4.30;78.55;100365.79;1760695;81;25872;-54
2020/12/06 10:56:51;;;;;;;19.95;12.28;;;;;;;4.27;78.48;100362.84;1776666;80;25799;-57
2020/12/06 10:59:17;;;;;;;17.92;12.07;;;;;;;4.25;78.54;100364.44;1769822;80;26004;-58
2020/12/06 11:01:44;;;;;;;17.85;12.68;;;;;;;4.22;78.44;100348.10;1758824;80;25908;-58
2020/12/06 11:04:11;;;;;;;22.85;13.60;;;;;;;4.22;78.55;100354.80;1729819;82;25731;-60
2020/12/06 11:06:38;;;;;;;20.27;13.05;;;;;;;4.23;78.74;100355.08;1729651;82;25792;-60
2020/12/06 11:09:05;;;;;;;19.30;13.68;;;;;;;4.23;78.63;100349.18;1729430;82;26515;-53
2020/12/06 11:11:31;;;;;;;19.45;13.53;;;;;;;4.24;78.63;100347.30;1729059;82;25789;-54
2020/12/06 11:13:58;;;;;;;24.30;14.13;;;;;;;4.25;78.48;100341.68;1729662;82;25665;-56
2020/12/06 11:16:25;;;;;;;18.87;12.53;;;;;;;4.24;78.37;100343.28;1727390;82;25946;-53
2020/12/06 11:18:52;;;;;;;21.52;12.58;;;;;;;4.22;78.22;100348.93;1749238;81;25862;-56
2020/12/06 11:21:20;;;;;;;22.73;12.95;;;;;;;4.21;78.09;100345.97;1748216;81;26502;-57
2020/12/06 11:23:48;;;;;;;19.40;12.07;;;;;;;4.20;78.19;100351.05;1747631;81;25632;-53
2020/12/06 11:26:17;;;;;;;20.23;12.75;;;;;;;4.21;78.14;100349.98;1745358;81;25779;-55